Time;durP1;ratioP1;P1;durP2;ratioP2;P2;SDS_P1;SDS_P2;PMS_P1;PMS_P2;Temp;Humidity;BMP_temperature;BMP_pressure;BME280_temperature;BME280_humidity;BME280_pressure;Samples;Min_cycle;Max_cycle;Signal;HPM_P1;HPM_P2
2024/04/10 00:00:56;;;;;;;28.85;4.50;;;9.70;99.90;;;;;;5454204;26;20010;-77
2024/04/10 00:03:22;;;;;;;32.53;5.00;;;9.60;99.90;;;;;;5445955;26;20436;-77
2024/04/10 00:06:09;;;;;;;40.67;4.90;;;9.60;99.90;;;;;;5461832;26;19991;-78
2024/04/10 00:08:35;;;;;;;25.20;4.57;;;9.50;99.90;;;;;;5455123;26;20016;-77
2024/04/10 00:11:02;;;;;;;34.10;4.55;;;9.50;99.90;;;;;;5457747;26;19999;-77
2024/04/10 00:13:29;;;;;;;28.88;4.00;;;9.40;99.90;;;;;;5446525;26;20146;-78
2024/04/10 00:16:04;;;;;;;33.03;5.22;;;9.40;99.90;;;;;;5448805;26;19995;-78
2024/04/10 00:18:32;;;;;;;29.33;4.20;;;9.40;99.90;;;;;;5456732;26;20003;-81
2024/04/10 00:20:57;;;;;;;36.25;4.18;;;9.40;99.90;;;;;;5423646;26;20067;-77
2024/04/10 00:23:23;;;;;;;29.38;4.40;;;9.40;99.90;;;;;;5415619;26;19998;-77
2024/04/10 00:26:00;;;;;;;35.00;5.15;;;9.40;99.90;;;;;;5451085;26;20002;-78
2024/04/10 00:28:31;;;;;;;30.58;4.43;;;9.50;99.90;;;;;;5441785;26;19999;-78
2024/04/10 00:30:57;;;;;;;33.13;4.63;;;9.50;99.90;;;;;;5445261;26;20006;-77
2024/04/10 00:33:23;;;;;;;31.35;4.80;;;9.50;99.90;;;;;;5449137;26;20014;-78
2024/04/10 00:35:58;;;;;;;39.60;4.90;;;9.50;99.90;;;;;;5447578;26;20036;-77
2024/04/10 00:38:26;;;;;;;29.75;4.32;;;9.40;99.90;;;;;;5416378;26;20026;-78
2024/04/10 00:40:56;;;;;;;25.92;4.95;;;9.30;99.90;;;;;;5417035;26;20018;-77
2024/04/10 00:43:22;;;;;;;26.25;3.80;;;9.20;99.90;;;;;;5436140;26;20075;-77
2024/04/10 00:45:58;;;;;;;27.42;4.68;;;9.30;99.90;;;;;;5422024;26;20007;-79
2024/04/10 00:48:24;;;;;;;30.27;4.28;;;9.20;99.90;;;;;;5440307;26;20121;-79
2024/04/10 00:50:52;;;;;;;43.67;5.22;;;9.20;99.90;;;;;;5452495;26;20013;-80
2024/04/10 00:53:17;;;;;;;44.55;6.70;;;9.30;99.90;;;;;;5417454;26;20394;-77
2024/04/10 00:55:43;;;;;;;35.78;4.78;;;9.40;99.90;;;;;;5447483;26;19999;-77
2024/04/10 00:58:11;;;;;;;31.08;4.50;;;9.30;99.90;;;;;;5419149;26;19999;-77
2024/04/10 01:00:37;;;;;;;26.95;4.53;;;9.40;99.90;;;;;;5453902;26;20031;-78
2024/04/10 01:03:03;;;;;;;31.80;4.65;;;9.40;99.90;;;;;;5447493;26;19996;-79
2024/04/10 01:05:28;;;;;;;28.98;5.38;;;9.50;99.90;;;;;;5436059;26;20015;-77
2024/04/10 01:07:54;;;;;;;38.45;5.63;;;9.40;99.90;;;;;;5451278;26;19998;-78
2024/04/10 01:10:20;;;;;;;34.33;5.43;;;9.30;99.90;;;;;;5453844;26;20005;-76
2024/04/10 01:12:45;;;;;;;25.95;4.15;;;9.20;99.90;;;;;;5453692;26;19991;-77
2024/04/10 01:15:13;;;;;;;26.60;4.00;;;9.20;99.90;;;;;;5397478;26;19998;-77
2024/04/10 01:17:38;;;;;;;32.55;4.90;;;9.20;99.90;;;;;;5455070;26;19998;-79
2024/04/10 01:20:09;;;;;;;22.05;4.22;;;9.20;99.90;;;;;;5421281;26;20010;-77
2024/04/10 01:22:35;;;;;;;30.55;4.05;;;9.30;99.90;;;;;;5449858;26;20013;-77
2024/04/10 01:25:03;;;;;;;29.55;5.07;;;9.30;99.90;;;;;;5455607;26;19999;-80
2024/04/10 01:27:30;;;;;;;22.67;4.30;;;9.30;99.90;;;;;;5436866;26;20011;-76
2024/04/10 01:29:55;;;;;;;28.13;4.50;;;9.30;99.90;;;;;;5397680;26;20076;-77
2024/04/10 01:32:21;;;;;;;30.08;4.28;;;9.20;99.90;;;;;;5413154;26;20397;-80
2024/04/10 01:34:47;;;;;;;26.02;4.50;;;9.20;99.90;;;;;;5461512;26;19998;-77
2024/04/10 01:37:12;;;;;;;32.65;4.47;;;9.30;99.90;;;;;;5474236;26;19999;-77
2024/04/10 01:39:38;;;;;;;35.83;5.35;;;9.20;99.90;;;;;;5439815;26;20034;-78
2024/04/10 01:42:04;;;;;;;33.72;5.50;;;9.10;99.90;;;;;;5405082;26;20016;-78
2024/04/10 01:44:30;;;;;;;28.90;4.78;;;9.10;99.90;;;;;;5397435;26;19998;-77
2024/04/10 01:46:55;;;;;;;27.17;3.55;;;9.00;99.90;;;;;;5434853;26;20415;-77
2024/04/10 01:49:21;;;;;;;29.23;4.05;;;8.90;99.90;;;;;;5413028;26;20002;-77
2024/04/10 01:51:47;;;;;;;30.77;3.83;;;8.80;99.90;;;;;;5439760;26;20032;-77
2024/04/10 01:54:13;;;;;;;35.78;5.10;;;8.90;99.90;;;;;;5451450;26;20439;-76
2024/04/10 01:56:39;;;;;;;30.25;5.20;;;9.00;99.90;;;;;;5467555;26;19999;-78
2024/04/10 01:59:04;;;;;;;22.75;3.95;;;9.10;99.90;;;;;;5423397;26;19998;-76
2024/04/10 02:01:30;;;;;;;28.33;5.18;;;9.10;99.90;;;;;;5455670;26;20435;-77
2024/04/10 02:03:56;;;;;;;26.63;4.07;;;9.00;99.90;;;;;;5454543;26;20414;-77
2024/04/10 02:06:23;;;;;;;29.35;3.58;;;9.10;99.90;;;;;;5483849;26;20455;-77
2024/04/10 02:08:49;;;;;;;26.95;4.68;;;9.10;99.90;;;;;;5443543;26;19999;-76
2024/04/10 02:11:26;;;;;;;24.27;3.25;;;9.10;99.90;;;;;;5467113;26;20330;-77
2024/04/10 02:13:52;;;;;;;21.38;3.67;;;9.10;99.90;;;;;;5425473;26;20100;-79
2024/04/10 02:16:19;;;;;;;20.27;3.05;;;9.20;99.90;;;;;;5505689;26;19986;-77
2024/04/10 02:18:45;;;;;;;27.48;4.40;;;9.20;99.90;;;;;;5424192;26;19999;-78
2024/04/10 02:21:11;;;;;;;20.02;3.45;;;9.20;99.90;;;;;;5447584;26;20387;-79
2024/04/10 02:23:36;;;;;;;21.83;3.80;;;9.20;99.90;;;;;;5462104;26;20345;-78
2024/04/10 02:26:10;;;;;;;17.15;3.53;;;9.20;99.90;;;;;;5429347;26;20013;-77
2024/04/10 02:28:36;;;;;;;20.55;3.67;;;9.10;99.90;;;;;;5481009;26;20082;-78
2024/04/10 02:31:02;;;;;;;26.70;4.97;;;9.10;99.90;;;;;;5421374;26;20035;-78
2024/04/10 02:33:27;;;;;;;19.60;3.75;;;9.10;99.90;;;;;;5434424;26;20075;-76
2024/04/10 02:35:53;;;;;;;25.80;3.30;;;9.20;99.90;;;;;;5487860;26;20002;-78
2024/04/10 02:38:19;;;;;;;29.20;4.32;;;9.30;99.90;;;;;;5451075;26;20018;-79
2024/04/10 02:40:44;;;;;;;33.22;4.03;;;9.20;99.90;;;;;;5468147;26;20440;-78
2024/04/10 02:43:10;;;;;;;24.95;4.10;;;9.20;99.90;;;;;;5422788;26;20471;-79
2024/04/10 02:45:35;;;;;;;22.73;4.18;;;9.10;99.90;;;;;;5442909;26;20015;-77
2024/04/10 02:48:02;;;;;;;30.90;4.35;;;9.10;99.90;;;;;;5477362;26;20446;-79
2024/04/10 02:50:27;;;;;;;24.77;3.45;;;9.10;99.90;;;;;;5430045;26;20079;-76
2024/04/10 02:52:53;;;;;;;29.73;4.22;;;9.20;99.90;;;;;;5397677;26;20770;-78
2024/04/10 02:55:18;;;;;;;23.33;4.18;;;9.30;99.90;;;;;;5386031;26;20601;-80
2024/04/10 02:57:45;;;;;;;27.52;3.80;;;9.30;99.90;;;;;;5444092;26;19990;-78
2024/04/10 03:00:11;;;;;;;21.85;4.22;;;9.30;99.90;;;;;;5455418;26;20002;-78
2024/04/10 03:02:37;;;;;;;21.58;3.33;;;9.10;99.90;;;;;;5463736;26;20013;-76
2024/04/10 03:05:04;;;;;;;17.92;3.50;;;9.10;99.90;;;;;;5481681;26;20018;-79
2024/04/10 03:07:30;;;;;;;21.88;3.65;;;9.00;99.90;;;;;;5451571;26;20009;-78
2024/04/10 03:09:56;;;;;;;41.30;4.82;;;8.90;99.90;;;;;;5487887;26;20001;-78
2024/04/10 03:12:21;;;;;;;26.48;4.50;;;8.80;99.90;;;;;;5403861;26;20464;-77
2024/04/10 03:14:48;;;;;;;26.80;3.60;;;8.90;99.90;;;;;;5423533;26;20075;-77
2024/04/10 03:17:16;;;;;;;28.80;5.13;;;8.90;99.90;;;;;;5392032;26;19999;-77
2024/04/10 03:19:41;;;;;;;25.20;4.25;;;8.90;99.90;;;;;;5426098;26;20113;-77
2024/04/10 03:22:08;;;;;;;30.02;3.78;;;8.90;99.90;;;;;;5427232;26;20015;-78
2024/04/10 03:24:34;;;;;;;24.33;4.80;;;8.80;99.90;;;;;;5451005;26;20003;-77
2024/04/10 03:27:00;;;;;;;33.38;4.70;;;8.80;99.90;;;;;;5421001;26;19994;-76
2024/04/10 03:29:26;;;;;;;30.08;3.78;;;8.70;99.90;;;;;;5435491;26;20489;-76
2024/04/10 03:31:53;;;;;;;22.48;3.67;;;8.70;99.90;;;;;;5488227;26;20009;-76
2024/04/10 03:34:19;;;;;;;26.40;4.03;;;8.70;99.90;;;;;;5451655;26;20071;-76
2024/04/10 03:36:45;;;;;;;28.35;3.95;;;8.80;99.90;;;;;;5475406;26;20013;-78
2024/04/10 03:39:11;;;;;;;19.25;4.32;;;8.70;99.90;;;;;;5408038;26;19999;-77
2024/04/10 03:41:37;;;;;;;28.52;4.13;;;8.60;99.90;;;;;;5434082;26;20006;-77
2024/04/10 03:44:05;;;;;;;30.50;4.80;;;8.60;99.90;;;;;;5466522;26;20069;-77
2024/04/10 03:46:32;;;;;;;24.77;3.83;;;8.60;99.90;;;;;;5417597;26;19998;-77
2024/04/10 03:48:58;;;;;;;25.58;4.45;;;8.80;99.90;;;;;;5451631;26;20011;-76
2024/04/10 03:51:24;;;;;;;26.27;3.85;;;8.90;99.90;;;;;;5451780;26;20079;-78
2024/04/10 03:53:50;;;;;;;19.77;4.07;;;8.90;99.90;;;;;;5421540;26;20527;-76
2024/04/10 03:56:15;;;;;;;29.85;4.85;;;9.00;99.90;;;;;;5450766;26;19995;-77
2024/04/10 03:58:41;;;;;;;19.95;4.25;;;9.00;99.90;;;;;;5410067;26;20003;-77
2024/04/10 04:01:13;;;;;;;29.48;4.35;;;8.90;99.90;;;;;;5401051;26;20373;-78
2024/04/10 04:03:38;;;;;;;22.33;3.85;;;8.80;99.90;;;;;;5482627;26;20002;-78
2024/04/10 04:06:05;;;;;;;22.20;3.67;;;8.80;99.90;;;;;;5462337;26;20132;-76
2024/04/10 04:08:31;;;;;;;26.00;5.25;;;8.80;99.90;;;;;;5459461;26;20022;-77
2024/04/10 04:10:57;;;;;;;28.02;3.72;;;8.90;99.90;;;;;;5434044;26;20012;-77
2024/04/10 04:13:23;;;;;;;26.35;3.90;;;8.90;99.90;;;;;;5414483;26;19994;-78
2024/04/10 04:15:49;;;;;;;25.70;3.55;;;8.80;99.90;;;;;;5436922;26;20007;-77
2024/04/10 04:18:15;;;;;;;29.08;4.45;;;8.80;99.90;;;;;;5482111;26;20002;-78
2024/04/10 04:20:41;;;;;;;21.30;4.00;;;8.70;99.90;;;;;;5442378;26;20013;-77
2024/04/10 04:23:07;;;;;;;24.40;3.67;;;8.60;99.90;;;;;;5460541;26;20338;-77
2024/04/10 04:25:34;;;;;;;31.67;4.50;;;8.50;99.90;;;;;;5453192;26;20014;-76
2024/04/10 04:28:01;;;;;;;26.48;3.85;;;8.60;99.90;;;;;;5448102;26;20018;-77
2024/04/10 04:30:27;;;;;;;22.52;3.67;;;8.60;99.90;;;;;;5433940;26;20003;-78
2024/04/10 04:32:54;;;;;;;20.42;3.85;;;8.70;99.90;;;;;;5441122;26;20025;-76
2024/04/10 04:35:20;;;;;;;19.90;4.15;;;8.70;99.90;;;;;;5470743;26;20005;-76
2024/04/10 04:37:54;;;;;;;22.45;4.05;;;8.60;99.90;;;;;;5442725;26;20048;-77
2024/04/10 04:40:20;;;;;;;17.73;3.03;;;8.60;99.90;;;;;;5439023;26;19999;-75
2024/04/10 04:42:47;;;;;;;19.58;3.15;;;8.60;99.90;;;;;;5413860;26;20033;-77
2024/04/10 04:45:13;;;;;;;27.70;3.75;;;8.60;99.90;;;;;;5474749;26;20012;-76
2024/04/10 04:47:39;;;;;;;21.98;3.50;;;8.50;99.90;;;;;;5465254;26;20384;-76
2024/04/10 04:50:08;;;;;;;26.23;4.32;;;8.50;99.90;;;;;;5477437;26;20074;-77
2024/04/10 04:52:34;;;;;;;22.42;4.15;;;8.30;99.90;;;;;;5476976;26;19994;-76
2024/04/10 04:55:01;;;;;;;22.45;3.20;;;8.40;99.90;;;;;;5483832;26;20331;-75
2024/04/10 04:57:26;;;;;;;23.55;4.53;;;8.50;99.90;;;;;;5418986;26;20396;-76
2024/04/10 04:59:52;;;;;;;24.83;4.35;;;8.60;99.90;;;;;;5431328;26;20047;-76
2024/04/10 05:02:18;;;;;;;21.65;3.35;;;8.50;99.90;;;;;;5426661;26;19995;-76
2024/04/10 05:04:57;;;;;;;28.75;4.13;;;8.40;99.90;;;;;;5453560;26;19994;-76
2024/04/10 05:07:24;;;;;;;28.40;4.10;;;8.40;99.90;;;;;;5453763;26;20329;-76
2024/04/10 05:09:50;;;;;;;32.97;3.55;;;8.30;99.90;;;;;;5411090;26;19997;-74
2024/04/10 05:12:16;;;;;;;29.17;3.83;;;8.30;99.90;;;;;;5445109;26;20025;-76
2024/04/10 05:14:48;;;;;;;16.27;3.53;;;8.30;99.90;;;;;;5476953;26;20396;-75
2024/04/10 05:17:14;;;;;;;26.40;3.60;;;8.30;99.90;;;;;;5490380;26;20017;-75
2024/04/10 05:19:39;;;;;;;23.88;4.13;;;8.30;99.90;;;;;;5405187;26;20002;-76
2024/04/10 05:22:05;;;;;;;22.77;4.30;;;8.40;99.90;;;;;;5405749;26;20002;-76
2024/04/10 05:24:31;;;;;;;18.02;3.95;;;8.50;99.90;;;;;;5490647;26;20002;-78
2024/04/10 05:26:56;;;;;;;18.40;4.03;;;8.40;99.90;;;;;;5486308;26;20074;-78
2024/04/10 05:29:22;;;;;;;22.45;3.35;;;8.40;99.90;;;;;;5411996;26;20010;-76
2024/04/10 05:31:48;;;;;;;22.77;3.72;;;8.40;99.90;;;;;;5444488;26;20011;-76
2024/04/10 05:34:15;;;;;;;22.25;4.05;;;8.30;99.90;;;;;;5458798;26;20070;-78
2024/04/10 05:36:41;;;;;;;28.15;4.32;;;8.30;99.90;;;;;;5462046;26;20446;-78
2024/04/10 05:39:07;;;;;;;27.02;4.97;;;8.30;99.90;;;;;;5478153;26;19998;-78
2024/04/10 05:41:32;;;;;;;18.60;2.80;;;8.30;99.90;;;;;;5427491;26;20469;-78
2024/04/10 05:43:58;;;;;;;19.55;4.60;;;8.30;99.90;;;;;;5423541;26;20014;-76
2024/04/10 05:46:26;;;;;;;29.00;3.95;;;8.30;99.90;;;;;;5471259;26;20009;-76
2024/04/10 05:48:52;;;;;;;20.60;4.07;;;8.40;99.90;;;;;;5489352;26;20002;-76
2024/04/10 05:51:17;;;;;;;17.63;3.53;;;8.40;99.90;;;;;;5494205;26;19998;-75
2024/04/10 05:53:43;;;;;;;30.90;4.03;;;8.40;99.90;;;;;;5492699;26;20450;-76
2024/04/10 05:56:10;;;;;;;26.85;3.90;;;8.50;99.90;;;;;;5466445;26;20002;-77
2024/04/10 05:58:36;;;;;;;25.33;3.58;;;8.60;99.90;;;;;;5419064;26;20434;-78
2024/04/10 06:01:08;;;;;;;24.38;4.85;;;8.60;99.90;;;;;;5425521;26;20012;-78
2024/04/10 06:03:34;;;;;;;20.80;4.18;;;8.60;99.90;;;;;;5488364;26;20021;-77
2024/04/10 06:06:12;;;;;;;22.98;4.22;;;8.70;99.90;;;;;;5417459;26;20005;-78
2024/04/10 06:08:39;;;;;;;27.95;3.90;;;8.70;99.90;;;;;;5466036;26;20009;-79
2024/04/10 06:11:05;;;;;;;26.75;4.43;;;8.70;99.90;;;;;;5490529;26;20033;-77
2024/04/10 06:13:32;;;;;;;24.77;3.58;;;8.80;99.90;;;;;;5458102;26;20476;-78
2024/04/10 06:16:02;;;;;;;29.77;3.78;;;9.00;99.90;;;;;;5482770;26;19999;-78
2024/04/10 06:18:27;;;;;;;26.00;4.82;;;9.00;99.90;;;;;;5444314;26;20013;-76
2024/04/10 06:21:00;;;;;;;15.10;3.47;;;9.00;99.90;;;;;;5425099;26;19995;-76
2024/04/10 06:23:27;;;;;;;;;;;8.90;99.90;;;;;;5456563;26;19998;-76
2024/04/10 06:25:53;;;;;;;25.95;4.05;;;8.90;99.90;;;;;;5491215;26;20043;-77
2024/04/10 06:28:18;;;;;;;21.92;4.25;;;8.90;99.90;;;;;;5454284;26;19999;-76
2024/04/10 06:30:44;;;;;;;15.38;3.40;;;8.90;99.90;;;;;;5444891;26;19994;-77
2024/04/10 06:33:13;;;;;;;25.90;3.92;;;8.90;99.90;;;;;;5446174;26;19999;-77
2024/04/10 06:35:38;;;;;;;29.20;4.20;;;9.10;99.90;;;;;;5451478;26;20014;-77
2024/04/10 06:38:04;;;;;;;26.13;4.75;;;9.20;99.90;;;;;;5413891;26;20015;-77
2024/04/10 06:40:30;;;;;;;44.85;5.00;;;9.30;99.90;;;;;;5378956;26;20010;-77
2024/04/10 06:42:56;;;;;;;22.23;4.90;;;9.30;99.90;;;;;;5419842;26;20011;-77
2024/04/10 06:45:22;;;;;;;22.63;3.53;;;9.20;99.90;;;;;;5451433;26;19998;-77
2024/04/10 06:47:48;;;;;;;25.35;4.40;;;9.20;99.90;;;;;;5422260;26;20072;-75
2024/04/10 06:50:14;;;;;;;33.00;5.38;;;9.10;99.90;;;;;;5385700;26;20208;-76
2024/04/10 06:52:39;;;;;;;19.13;4.30;;;9.20;99.90;;;;;;5450792;26;20005;-76
2024/04/10 06:55:06;;;;;;;20.48;4.45;;;9.50;99.90;;;;;;5451433;26;20006;-77
2024/04/10 06:57:32;;;;;;;25.45;4.53;;;9.50;99.90;;;;;;5453775;26;19994;-75
2024/04/10 07:00:02;;;;;;;30.17;4.03;;;9.60;99.90;;;;;;5434703;26;19999;-75
2024/04/10 07:02:28;;;;;;;18.70;4.10;;;9.70;99.90;;;;;;5387018;26;20052;-75
2024/04/10 07:04:54;;;;;;;28.98;4.13;;;9.70;99.90;;;;;;5421648;26;19998;-75
2024/04/10 07:07:20;;;;;;;19.38;3.90;;;9.60;99.90;;;;;;5419373;26;20000;-75
2024/04/10 07:09:46;;;;;;;26.42;4.07;;;9.60;99.90;;;;;;5452524;26;20659;-76
2024/04/10 07:12:12;;;;;;;20.88;4.10;;;9.70;99.90;;;;;;5452668;26;20006;-78
2024/04/10 07:14:40;;;;;;;25.23;3.75;;;9.70;99.90;;;;;;5414234;26;20067;-78
2024/04/10 07:17:05;;;;;;;24.65;4.72;;;9.70;99.90;;;;;;5443248;26;20043;-75
2024/04/10 07:19:34;;;;;;;24.33;5.57;;;9.90;99.90;;;;;;5453303;26;20383;-77
2024/04/10 07:22:07;;;;;;;23.52;4.55;;;10.00;99.90;;;;;;5392729;26;19991;-76
2024/04/10 07:24:36;;;;;;;27.67;4.63;;;10.20;99.90;;;;;;5453746;26;19999;-77
2024/04/10 07:27:02;;;;;;;30.70;4.50;;;10.30;99.90;;;;;;5451484;26;20031;-76
2024/04/10 07:29:30;;;;;;;24.35;3.92;;;10.50;99.90;;;;;;5405801;26;19998;-76
2024/04/10 07:31:55;;;;;;;28.70;5.25;;;10.60;99.90;;;;;;5424304;26;20010;-75
2024/04/10 07:34:21;;;;;;;19.10;3.97;;;10.50;99.90;;;;;;5493657;26;20012;-77
2024/04/10 07:38:07;;;;;;;23.30;4.20;;;10.50;99.90;;;;;;5509377;25;20742;-77
2024/04/10 07:40:33;;;;;;;21.45;3.67;;;10.70;99.90;;;;;;5477288;26;19997;-77
2024/04/10 07:42:58;;;;;;;33.00;4.40;;;10.80;99.90;;;;;;5450940;26;20014;-77
2024/04/10 07:45:27;;;;;;;19.98;3.78;;;10.90;99.90;;;;;;5440378;26;20005;-76
2024/04/10 07:47:53;;;;;;;25.75;4.10;;;10.90;99.90;;;;;;5444645;26;20014;-78
2024/04/10 07:50:19;;;;;;;12.60;2.78;;;10.90;99.90;;;;;;5494236;26;20009;-76
2024/04/10 07:52:45;;;;;;;17.70;4.05;;;10.90;99.90;;;;;;5458768;26;20002;-78
2024/04/10 07:55:12;;;;;;;23.60;4.40;;;10.90;99.90;;;;;;5431969;26;20344;-76
2024/04/10 07:57:39;;;;;;;19.13;3.50;;;11.10;99.90;;;;;;5410712;26;20002;-76
2024/04/10 08:00:08;;;;;;;21.70;3.10;;;11.30;99.90;;;;;;5419303;26;20010;-80
2024/04/10 08:02:34;;;;;;;26.65;3.70;;;11.30;99.90;;;;;;5419562;26;20043;-77
2024/04/10 08:05:00;;;;;;;26.63;4.10;;;11.50;99.90;;;;;;5415891;26;20009;-77
2024/04/10 08:07:25;;;;;;;24.35;3.72;;;11.70;99.90;;;;;;5448878;26;20477;-76
2024/04/10 08:09:51;;;;;;;18.23;3.17;;;11.90;99.90;;;;;;5424577;26;19995;-75
2024/04/10 08:12:17;;;;;;;21.60;3.42;;;12.10;99.90;;;;;;5404890;26;20005;-75
2024/04/10 08:14:43;;;;;;;19.00;3.33;;;12.20;99.90;;;;;;5432242;26;20299;-77
2024/04/10 08:17:09;;;;;;;22.05;3.58;;;12.30;99.90;;;;;;5505347;26;20002;-77
2024/04/10 08:19:35;;;;;;;23.17;4.60;;;12.40;99.90;;;;;;5472016;26;19998;-79
2024/04/10 08:22:00;;;;;;;15.65;2.47;;;12.50;99.90;;;;;;5439269;26;20020;-75
2024/04/10 08:24:26;;;;;;;13.00;2.72;;;12.40;99.90;;;;;;5449013;26;19999;-78
2024/04/10 08:26:52;;;;;;;22.65;3.97;;;12.40;99.90;;;;;;5441719;26;20068;-78
2024/04/10 08:29:17;;;;;;;21.60;3.35;;;12.40;99.90;;;;;;5434619;26;20413;-76
2024/04/10 08:31:43;;;;;;;20.33;2.78;;;12.50;99.90;;;;;;5419365;26;19998;-75
2024/04/10 08:34:10;;;;;;;22.13;2.60;;;12.60;99.90;;;;;;5417325;26;19999;-75
2024/04/10 08:36:36;;;;;;;22.52;4.35;;;12.80;99.90;;;;;;5451661;26;19994;-76
2024/04/10 08:39:04;;;;;;;15.82;2.85;;;13.20;99.90;;;;;;5484489;26;19994;-76
2024/04/10 08:41:31;;;;;;;23.50;3.92;;;13.40;99.90;;;;;;5503550;26;19998;-76
2024/04/10 08:43:58;;;;;;;19.63;2.90;;;13.50;99.90;;;;;;5470601;26;20511;-76
2024/04/10 08:46:27;;;;;;;17.00;2.80;;;13.70;99.90;;;;;;5421598;26;20023;-76
2024/04/10 08:48:56;;;;;;;13.68;2.70;;;13.90;99.90;;;;;;5413662;26;19999;-77
2024/04/10 08:51:22;;;;;;;19.25;2.95;;;14.00;99.90;;;;;;5475244;26;20075;-75
2024/04/10 08:53:50;;;;;;;17.83;2.65;;;13.80;99.90;;;;;;5435906;26;19999;-75
2024/04/10 08:56:16;;;;;;;14.90;3.20;;;13.90;99.90;;;;;;5417272;26;20589;-76
2024/04/10 08:58:43;;;;;;;20.15;3.40;;;14.10;99.90;;;;;;5425312;26;20001;-75
2024/04/10 09:01:09;;;;;;;19.80;2.80;;;14.40;99.90;;;;;;5458356;26;19995;-75
2024/04/10 09:03:36;;;;;;;22.65;2.90;;;14.40;99.90;;;;;;5449818;26;20009;-74
2024/04/10 09:06:06;;;;;;;16.63;2.40;;;14.70;99.90;;;;;;5403415;26;20005;-73
2024/04/10 09:08:32;;;;;;;12.95;2.22;;;14.90;99.90;;;;;;5426010;26;19999;-74
2024/04/10 09:10:57;;;;;;;10.27;1.73;;;15.10;99.90;;;;;;5422346;26;20003;-74
2024/04/10 09:13:24;;;;;;;17.92;2.70;;;15.40;99.90;;;;;;5422358;26;20436;-74
2024/04/10 09:15:57;;;;;;;13.77;3.03;;;15.50;99.90;;;;;;5367186;26;20038;-76
2024/04/10 09:18:23;;;;;;;15.35;2.70;;;15.70;99.90;;;;;;5422111;26;20516;-74
2024/04/10 09:20:49;;;;;;;16.88;2.97;;;16.10;99.90;;;;;;5422345;26;20010;-74
2024/04/10 09:23:15;;;;;;;11.40;2.70;;;16.50;99.90;;;;;;5363352;26;20002;-74
2024/04/10 09:25:44;;;;;;;11.68;2.42;;;17.10;99.90;;;;;;5436884;26;20464;-74
2024/04/10 09:28:12;;;;;;;12.98;2.63;;;17.60;99.80;;;;;;5401811;26;19999;-74
2024/04/10 09:30:38;;;;;;;11.25;2.20;;;17.90;98.70;;;;;;5426629;26;20009;-74
2024/04/10 09:33:04;;;;;;;8.30;2.05;;;18.20;98.20;;;;;;5438102;26;20463;-75
2024/04/10 09:35:31;;;;;;;7.63;1.80;;;18.00;96.10;;;;;;5428187;26;20326;-74
2024/04/10 09:38:02;;;;;;;7.88;1.88;;;18.10;94.90;;;;;;5456722;26;20051;-74
2024/04/10 09:40:29;;;;;;;11.55;1.90;;;18.20;93.40;;;;;;5429111;26;20143;-74
2024/04/10 09:43:06;;;;;;;10.27;1.92;;;18.60;92.00;;;;;;5457051;26;20014;-75
2024/04/10 09:45:42;;;;;;;10.25;1.50;;;18.70;91.00;;;;;;5487234;26;19998;-74
2024/04/10 09:48:09;;;;;;;7.88;1.75;;;19.30;89.90;;;;;;5440664;26;20072;-74
2024/04/10 09:50:36;;;;;;;6.07;1.50;;;20.00;88.00;;;;;;5454881;26;20443;-74
2024/04/10 09:53:04;;;;;;;9.18;1.60;;;20.90;87.30;;;;;;5394054;26;20003;-73
2024/04/10 09:55:33;;;;;;;6.80;1.50;;;21.70;83.60;;;;;;5424806;26;20003;-75
2024/04/10 09:58:01;;;;;;;17.35;2.08;;;21.60;79.90;;;;;;5422768;26;20013;-73
2024/04/10 10:00:27;;;;;;;6.85;1.55;;;21.50;79.80;;;;;;5431549;26;19998;-74
2024/04/10 10:03:22;;;;;;;7.05;1.33;;;21.50;76.50;;;;;;5458214;26;20021;-73
2024/04/10 10:05:47;;;;;;;6.60;1.30;;;22.10;75.50;;;;;;5459729;26;20327;-73
2024/04/10 10:08:14;;;;;;;6.90;1.50;;;22.70;73.80;;;;;;5428048;26;20012;-74
2024/04/10 10:10:50;;;;;;;10.75;1.50;;;22.90;73.00;;;;;;5467117;26;20018;-73
2024/04/10 10:13:55;;;;;;;5.15;1.58;;;23.80;71.80;;;;;;5465386;26;20036;-72
2024/04/10 10:16:25;;;;;;;6.80;1.15;;;24.20;66.30;;;;;;5441415;26;20067;-76
2024/04/10 10:19:01;;;;;;;8.40;1.60;;;24.00;67.00;;;;;;5404303;26;20023;-74
2024/04/10 10:21:29;;;;;;;6.60;1.60;;;24.10;66.70;;;;;;5436995;26;20009;-74
2024/04/10 10:24:06;;;;;;;5.22;1.25;;;24.90;65.60;;;;;;5488770;26;20013;-74
2024/04/10 10:26:32;;;;;;;9.65;1.70;;;24.70;64.10;;;;;;5488380;26;20010;-73
2024/04/10 10:29:02;;;;;;;4.22;1.17;;;25.00;62.30;;;;;;5443130;26;19995;-74
2024/04/10 10:31:28;;;;;;;6.70;1.40;;;25.40;61.80;;;;;;5385098;26;20090;-73
2024/04/10 10:34:13;;;;;;;5.35;1.40;;;25.70;61.70;;;;;;5421623;26;20142;-73
2024/04/10 10:36:39;;;;;;;9.93;1.83;;;26.40;61.40;;;;;;5420642;26;20417;-73
2024/04/10 10:39:10;;;;;;;6.00;1.85;;;26.60;60.00;;;;;;5391198;26;20029;-74
2024/04/10 10:41:36;;;;;;;6.95;1.45;;;26.80;60.20;;;;;;5421008;26;20321;-73
2024/04/10 10:44:02;;;;;;;9.25;1.13;;;27.20;59.10;;;;;;5453144;26;20030;-73
2024/04/10 10:46:28;;;;;;;3.65;1.17;;;27.00;57.50;;;;;;5390407;26;20329;-72
2024/04/10 10:48:54;;;;;;;6.00;1.63;;;26.80;58.20;;;;;;5435440;26;20013;-72
2024/04/10 10:51:20;;;;;;;8.40;1.00;;;26.20;58.10;;;;;;5470069;26;20003;-72
2024/04/10 10:53:47;;;;;;;5.60;1.20;;;25.60;58.00;;;;;;5457763;26;20010;-73
2024/04/10 10:56:30;;;;;;;5.78;1.45;;;25.20;57.50;;;;;;5461016;26;20013;-73
2024/04/10 10:59:07;;;;;;;7.68;1.80;;;25.30;58.70;;;;;;5472404;26;20048;-73
2024/04/10 11:01:34;;;;;;;4.95;1.33;;;24.90;58.10;;;;;;5472463;26;20095;-73
2024/04/10 11:04:28;;;;;;;7.18;1.80;;;25.50;58.20;;;;;;5426999;26;20002;-73
2024/04/10 11:06:54;;;;;;;6.15;1.60;;;26.50;57.40;;;;;;5462069;26;20005;-72
2024/04/10 11:09:22;;;;;;;6.03;1.20;;;26.80;56.70;;;;;;5455613;26;19997;-73
2024/04/10 11:11:47;;;;;;;8.77;1.83;;;26.30;57.00;;;;;;5435040;26;20076;-74
2024/04/10 11:14:21;;;;;;;10.70;1.90;;;25.70;57.10;;;;;;5456209;26;20006;-75
2024/04/10 11:16:47;;;;;;;5.10;1.60;;;25.70;56.60;;;;;;5488974;26;20005;-73
2024/04/10 11:19:13;;;;;;;7.63;1.73;;;25.10;58.80;;;;;;5455968;26;20023;-74
2024/04/10 11:21:39;;;;;;;4.68;1.27;;;25.50;58.50;;;;;;5456502;26;20443;-72
2024/04/10 11:24:05;;;;;;;7.65;1.65;;;25.90;58.50;;;;;;5423299;26;20033;-73
2024/04/10 11:26:30;;;;;;;6.68;1.60;;;26.50;57.90;;;;;;5392195;26;19998;-75
2024/04/10 11:28:56;;;;;;;5.97;1.40;;;26.30;58.60;;;;;;5432362;26;20121;-76
2024/04/10 11:31:22;;;;;;;8.75;1.50;;;26.60;57.10;;;;;;5439104;26;20059;-75
2024/04/10 11:33:49;;;;;;;6.60;2.00;;;26.50;58.40;;;;;;5467290;26;20007;-74
2024/04/10 11:36:15;;;;;;;11.80;1.67;;;26.90;58.30;;;;;;5452870;26;20003;-74
2024/04/10 11:38:42;;;;;;;11.57;1.95;;;27.00;58.10;;;;;;5420722;26;19998;-75
2024/04/10 11:41:09;;;;;;;5.57;1.58;;;27.60;57.40;;;;;;5420902;26;19999;-75
2024/04/10 11:43:34;;;;;;;11.43;2.00;;;28.20;57.60;;;;;;5366090;26;20003;-74
2024/04/10 11:46:02;;;;;;;6.65;1.60;;;28.70;56.60;;;;;;5417640;26;19998;-72
2024/04/10 11:48:28;;;;;;;8.20;1.63;;;28.30;56.60;;;;;;5429154;26;20416;-73
2024/04/10 11:50:57;;;;;;;7.57;1.65;;;28.20;56.00;;;;;;5455636;26;19998;-75
2024/04/10 11:53:23;;;;;;;7.40;1.48;;;28.30;55.90;;;;;;5454535;26;19998;-74
2024/04/10 11:55:50;;;;;;;5.35;1.80;;;28.00;55.90;;;;;;5446099;26;20080;-76
2024/04/10 11:58:16;;;;;;;7.45;1.67;;;27.90;56.00;;;;;;5398799;26;20390;-74
2024/04/10 12:00:42;;;;;;;8.25;1.88;;;27.00;56.00;;;;;;5376957;26;20003;-73
2024/04/10 12:03:08;;;;;;;6.95;1.65;;;27.00;56.40;;;;;;5492584;26;20002;-73
2024/04/10 12:05:36;;;;;;;10.93;2.17;;;27.00;56.20;;;;;;5426695;26;20002;-73
2024/04/10 12:08:02;;;;;;;7.45;1.90;;;27.20;56.50;;;;;;5428646;26;20079;-74
2024/04/10 12:10:28;;;;;;;9.60;1.60;;;26.20;56.20;;;;;;5377314;26;20033;-75
2024/04/10 12:12:54;;;;;;;5.78;1.65;;;26.40;56.00;;;;;;5418830;26;20784;-73
2024/04/10 12:15:19;;;;;;;6.85;1.63;;;26.80;55.80;;;;;;5451483;26;20002;-73
2024/04/10 12:17:45;;;;;;;7.10;1.58;;;26.30;56.20;;;;;;5423106;26;19999;-73
2024/04/10 12:20:11;;;;;;;8.10;1.98;;;26.40;55.90;;;;;;5469264;26;20072;-73
2024/04/10 12:22:36;;;;;;;7.68;1.83;;;26.60;55.60;;;;;;5443712;26;19999;-72
2024/04/10 12:25:03;;;;;;;5.93;1.70;;;26.90;55.40;;;;;;5377621;26;20017;-74
2024/04/10 12:27:29;;;;;;;7.22;1.88;;;26.70;56.30;;;;;;5423753;26;19994;-73
2024/04/10 12:29:57;;;;;;;7.35;2.10;;;27.40;55.90;;;;;;5422496;26;20009;-74
2024/04/10 12:32:24;;;;;;;5.10;1.67;;;27.00;55.30;;;;;;5454230;26;19998;-73
2024/04/10 12:34:52;;;;;;;8.38;1.58;;;25.60;56.70;;;;;;5410666;26;19997;-74
2024/04/10 12:40:09;;;;;;;9.00;2.05;;;26.50;55.80;;;;;;5406325;26;20009;-74
2024/04/10 12:42:35;;;;;;;8.90;1.83;;;26.90;56.70;;;;;;5460627;26;20338;-74
2024/04/10 12:45:01;;;;;;;6.43;1.70;;;26.70;56.70;;;;;;5422227;26;19999;-75
2024/04/10 12:47:27;;;;;;;9.60;1.65;;;27.20;56.40;;;;;;5398739;26;19998;-74
2024/04/10 12:49:52;;;;;;;5.40;1.42;;;28.00;55.30;;;;;;5427984;26;20342;-73